189 — NJLN — position and weather

sailwx.info

Track history (hours):
 
Tides and Currents Weather Stations Pressure Air Temp Water Temp Dewpoint Dewpoint Depression Visibility Wind Speed Wind Dir Waves Ship Positions

189

Last reported at 2017-Dec-14 18:29 UTC. Time now 2018-Feb-19 04:15 UTC.
Position N 35°27' E 026°09'.
Warning: this ship's position is months out of date.

Length 206 m.

Type: Military. MMSI: 367932000.

Date/timePositionNaut miles runAvg speedWind from/ knotsBaromVisibWave heightAir tempDewpointWater temp
2017-Dec-14 18:29N 35°27' E 026°09'817.0
2017-Dec-14 17:59N 35°28' E 025°58'816.5
2017-Dec-14 17:30N 35°29' E 025°48'816.7
2017-Dec-14 17:01N 35°30' E 025°38'816.8
2017-Dec-14 16:30N 35°31' E 025°28'816.8
2017-Dec-14 16:00N 35°32' E 025°18'1616.1
2017-Dec-14 15:00N 35°32' E 024°58'1716.2
2017-Dec-14 13:56N 35°31' E 024°37'716.8
2017-Dec-14 13:31N 35°30' E 024°28'816.6
2017-Dec-14 13:00N 35°30' E 024°18'7 0.7
2017-Dec-14 01:54N 35°30' E 024°09'1 0.0
2017-Dec-12 05:56N 35°29' E 024°10'4 8.4
2017-Dec-12 05:28N 35°30' E 024°15'4 8.6
2017-Dec-12 04:58N 35°32' E 024°19'4 8.0
2017-Dec-12 04:30N 35°36' E 024°20'5 6.9
2017-Dec-12 03:47N 35°41' E 024°20'2 6.0
2017-Dec-12 03:31N 35°43' E 024°20'3 5.7
2017-Dec-12 03:00N 35°44' E 024°17'3 6.0
2017-Dec-12 02:31N 35°44' E 024°13'4 7.9
2017-Dec-12 02:00N 35°45' E 024°08'712.2
2017-Dec-12 01:27N 35°46' E 024°00'44711.7
2017-Dec-10 11:10N 36°24' E 014°48'312.4
2017-Dec-10 10:57N 36°24' E 014°45'612.8
2017-Dec-10 10:28N 36°25' E 014°38'612.8
2017-Dec-10 10:00N 36°27' E 014°31'612.7
2017-Dec-10 09:30N 36°29' E 014°23'612.5
2017-Dec-10 09:00N 36°31' E 014°16'612.7
2017-Dec-10 08:31N 36°34' E 014°09'612.5
2017-Dec-10 07:59N 36°36' E 014°01'62612.5
2017-Dec-08 05:56N 37°09' E 000°59'916.3
2017-Dec-08 05:24N 37°08' E 000°48'816.2
2017-Dec-08 04:56N 37°07' E 000°39'  
Track history (hours):
 
Tides and Currents Weather Stations Pressure Air Temp Water Temp Dewpoint Dewpoint Depression Visibility Wind Speed Wind Dir Waves Ship Positions

189

Last reported at 2017-Dec-14 18:29 UTC. Time now 2018-Feb-19 04:15 UTC.
Position N 35°27' E 026°09'.
Warning: this ship's position is months out of date.

Length 206 m.

Type: Military. MMSI: 367932000.

Date/timePositionNaut miles runAvg speedWind from/ knotsBaromVisibWave heightAir tempDewpointWater temp
2017-Dec-14 18:29N 35°27' E 026°09'817.0
2017-Dec-14 17:59N 35°28' E 025°58'816.5
2017-Dec-14 17:30N 35°29' E 025°48'816.7
2017-Dec-14 17:01N 35°30' E 025°38'816.8
2017-Dec-14 16:30N 35°31' E 025°28'816.8
2017-Dec-14 16:00N 35°32' E 025°18'1616.1
2017-Dec-14 15:00N 35°32' E 024°58'1716.2
2017-Dec-14 13:56N 35°31' E 024°37'716.8
2017-Dec-14 13:31N 35°30' E 024°28'816.6
2017-Dec-14 13:00N 35°30' E 024°18'7 0.7
2017-Dec-14 01:54N 35°30' E 024°09'1 0.0
2017-Dec-12 05:56N 35°29' E 024°10'4 8.4
2017-Dec-12 05:28N 35°30' E 024°15'4 8.6
2017-Dec-12 04:58N 35°32' E 024°19'4 8.0
2017-Dec-12 04:30N 35°36' E 024°20'5 6.9
2017-Dec-12 03:47N 35°41' E 024°20'2 6.0
2017-Dec-12 03:31N 35°43' E 024°20'3 5.7
2017-Dec-12 03:00N 35°44' E 024°17'3 6.0
2017-Dec-12 02:31N 35°44' E 024°13'4 7.9
2017-Dec-12 02:00N 35°45' E 024°08'712.2
2017-Dec-12 01:27N 35°46' E 024°00'44711.7
2017-Dec-10 11:10N 36°24' E 014°48'312.4
2017-Dec-10 10:57N 36°24' E 014°45'612.8
2017-Dec-10 10:28N 36°25' E 014°38'612.8
2017-Dec-10 10:00N 36°27' E 014°31'612.7
2017-Dec-10 09:30N 36°29' E 014°23'612.5
2017-Dec-10 09:00N 36°31' E 014°16'612.7
2017-Dec-10 08:31N 36°34' E 014°09'612.5
2017-Dec-10 07:59N 36°36' E 014°01'62612.5
2017-Dec-08 05:56N 37°09' E 000°59'916.3
2017-Dec-08 05:24N 37°08' E 000°48'816.2
2017-Dec-08 04:56N 37°07' E 000°39'  

Dump ship's entire track history